Terminal Aerodrome Forecast
Issued by NWS

Current Version | Previous Version | Text Only | Print | Product List | Glossary On
Versions: 1 2 3 4 5 6 7 8 9 10 11 12
689
FTUS42 KMLB 262323
TAFISM
TAF
KISM 262323Z 2700/2724 14005KT P6SM FEW035
     FM272000 13007KT P6SM VCTS SCT045CB=

USA.gov is the U.S. government's official web portal to all federal, state and local government web resources and services.